Time;durP1;ratioP1;P1;durP2;ratioP2;P2;SDS_P1;SDS_P2;PMS_P1;PMS_P2;Temp;Humidity;BMP_temperature;BMP_pressure;BME280_temperature;BME280_humidity;BME280_pressure;Samples;Min_cycle;Max_cycle;Signal;HPM_P1;HPM_P2
2023/03/19 00:02:11;;;;;;;3.40;2.20;;;;;;;;;;4990174;28;94863;-87
2023/03/19 00:04:44;;;;;;;3.92;2.00;;;;;;;;;;4994471;28;96493;-86
2023/03/19 00:07:10;;;;;;;6.78;2.30;;;;;;;;;;4989358;28;94979;-86
2023/03/19 00:09:37;;;;;;;4.80;2.35;;;;;;;;;;4989969;28;92484;-86
2023/03/19 00:12:03;;;;;;;4.85;2.40;;;;;;;;;;4990980;28;93997;-85
2023/03/19 00:14:30;;;;;;;4.90;2.58;;;;;;;;;;4995527;28;94725;-84
2023/03/19 00:16:56;;;;;;;4.03;2.42;;;;;;;;;;4991562;28;92724;-87
2023/03/19 00:19:24;;;;;;;4.47;2.30;;;;;;;;;;4985289;28;93194;-84
2023/03/19 00:21:51;;;;;;;3.83;1.90;;;;;;;;;;4993431;28;92520;-87
2023/03/19 00:24:17;;;;;;;6.68;2.97;;;;;;;;;;4982807;28;94599;-85
2023/03/19 00:26:43;;;;;;;3.78;2.13;;;;;;;;;;4992624;28;95807;-87
2023/03/19 00:29:10;;;;;;;5.18;2.38;;;;;;;;;;4984379;28;92440;-84
2023/03/19 00:31:36;;;;;;;3.65;2.20;;;;;;;;;;4987194;28;93235;-86
2023/03/19 00:34:02;;;;;;;4.85;2.47;;;;;;;;;;4991154;28;93504;-87
2023/03/19 00:36:29;;;;;;;4.65;2.63;;;;;;;;;;4992413;28;92442;-86
2023/03/19 00:38:56;;;;;;;2.90;2.20;;;;;;;;;;4987051;28;93644;-87
2023/03/19 00:41:22;;;;;;;3.70;2.35;;;;;;;;;;4983014;28;94456;-86
2023/03/19 00:43:53;;;;;;;2.63;2.25;;;;;;;;;;4988853;28;97134;-87
2023/03/19 00:46:19;;;;;;;3.58;2.42;;;;;;;;;;4992967;28;96461;-86
2023/03/19 00:48:46;;;;;;;3.63;2.20;;;;;;;;;;4997163;28;92478;-86
2023/03/19 00:51:12;;;;;;;2.95;2.20;;;;;;;;;;4992131;28;94959;-87
2023/03/19 00:53:41;;;;;;;4.68;2.17;;;;;;;;;;4996817;28;94506;-86
2023/03/19 00:56:08;;;;;;;6.15;2.47;;;;;;;;;;4996454;28;92551;-87
2023/03/19 00:58:37;;;;;;;3.03;2.30;;;;;;;;;;4995263;28;94307;-87
2023/03/19 01:01:04;;;;;;;3.30;2.15;;;;;;;;;;4995876;28;95038;-87
2023/03/19 01:03:30;;;;;;;2.95;2.50;;;;;;;;;;4987662;28;92658;-87
2023/03/19 01:05:58;;;;;;;4.97;2.25;;;;;;;;;;4991600;28;94066;-87
2023/03/19 01:08:24;;;;;;;6.30;2.63;;;;;;;;;;4987970;28;91676;-87
2023/03/19 01:10:50;;;;;;;2.75;2.20;;;;;;;;;;4995814;28;93480;-86
2023/03/19 01:13:17;;;;;;;3.53;2.50;;;;;;;;;;4995216;28;94490;-87
2023/03/19 01:15:43;;;;;;;2.72;2.42;;;;;;;;;;4994461;28;94911;-86
2023/03/19 01:18:10;;;;;;;3.58;2.60;;;;;;;;;;4976306;28;96431;-86
2023/03/19 01:20:38;;;;;;;6.55;2.90;;;;;;;;;;4991850;28;92537;-86
2023/03/19 01:23:05;;;;;;;4.63;3.00;;;;;;;;;;4986333;28;92382;-86
2023/03/19 01:25:32;;;;;;;3.33;2.80;;;;;;;;;;4987831;28;93511;-87
2023/03/19 01:27:58;;;;;;;4.07;2.80;;;;;;;;;;4992508;28;93381;-86
2023/03/19 01:30:25;;;;;;;4.65;2.53;;;;;;;;;;4987745;28;96691;-87
2023/03/19 01:32:52;;;;;;;4.80;2.90;;;;;;;;;;4981246;28;93739;-85
2023/03/19 01:35:18;;;;;;;5.35;3.00;;;;;;;;;;4987730;28;93747;-87
2023/03/19 01:37:44;;;;;;;6.63;3.45;;;;;;;;;;4984065;28;94121;-86
2023/03/19 01:40:12;;;;;;;5.93;3.28;;;;;;;;;;4979361;28;96968;-86
2023/03/19 01:42:52;;;;;;;3.17;2.88;;;;;;;;;;4992771;28;92562;-87
2023/03/19 01:45:28;;;;;;;6.10;2.87;;;;;;;;;;4995880;28;94614;-87
2023/03/19 01:47:55;;;;;;;3.35;2.85;;;;;;;;;;4990500;28;93561;-87
2023/03/19 01:50:27;;;;;;;5.63;3.30;;;;;;;;;;4993535;28;94252;-86
2023/03/19 01:52:54;;;;;;;6.82;3.28;;;;;;;;;;5007203;28;93487;-87
2023/03/19 01:55:20;;;;;;;5.43;3.08;;;;;;;;;;4995031;28;92507;-86
2023/03/19 01:57:47;;;;;;;6.60;3.63;;;;;;;;;;4995604;28;96508;-87
2023/03/19 02:00:13;;;;;;;4.05;3.10;;;;;;;;;;4990894;28;94928;-87
2023/03/19 02:02:40;;;;;;;5.57;3.10;;;;;;;;;;4991598;28;92705;-87
2023/03/19 02:05:09;;;;;;;3.58;3.13;;;;;;;;;;4991582;28;94904;-86
2023/03/19 02:07:37;;;;;;;7.18;3.25;;;;;;;;;;4996384;28;94543;-86
2023/03/19 02:10:06;;;;;;;6.25;3.22;;;;;;;;;;4994894;28;94132;-86
2023/03/19 02:12:32;;;;;;;5.00;3.10;;;;;;;;;;4982739;28;94630;-86
2023/03/19 02:14:58;;;;;;;5.75;3.30;;;;;;;;;;4987659;28;92432;-87
2023/03/19 02:17:26;;;;;;;6.05;2.97;;;;;;;;;;4986087;28;94407;-85
2023/03/19 02:19:53;;;;;;;5.78;3.05;;;;;;;;;;4994903;28;94921;-86
2023/03/19 02:22:21;;;;;;;4.25;3.20;;;;;;;;;;4994850;28;92130;-87
2023/03/19 02:25:15;;;;;;;6.32;3.80;;;;;;;;;;4984008;28;93316;-88
2023/03/19 02:27:42;;;;;;;3.25;2.75;;;;;;;;;;4977714;28;94472;-88
2023/03/19 02:30:19;;;;;;;4.78;3.15;;;;;;;;;;4997130;28;94937;-86
2023/03/19 02:32:45;;;;;;;4.65;3.50;;;;;;;;;;4994691;28;96425;-85
2023/03/19 02:35:12;;;;;;;6.22;3.40;;;;;;;;;;4991381;28;92554;-86
2023/03/19 02:37:38;;;;;;;11.15;3.70;;;;;;;;;;4998150;28;94467;-86
2023/03/19 02:40:10;;;;;;;8.38;3.47;;;;;;;;;;4992246;28;94721;-86
2023/03/19 02:42:36;;;;;;;7.18;3.72;;;;;;;;;;4978337;28;92597;-86
2023/03/19 02:45:03;;;;;;;7.20;3.72;;;;;;;;;;4991412;28;94418;-86
2023/03/19 02:47:29;;;;;;;5.32;3.20;;;;;;;;;;4987923;28;93673;-87
2023/03/19 02:49:55;;;;;;;4.80;3.40;;;;;;;;;;4992868;28;93567;-86
2023/03/19 02:52:22;;;;;;;5.43;3.70;;;;;;;;;;4985873;28;94440;-86
2023/03/19 02:54:49;;;;;;;5.50;3.70;;;;;;;;;;4988122;28;94913;-86
2023/03/19 02:57:15;;;;;;;4.55;3.60;;;;;;;;;;4974554;28;96348;-86
2023/03/19 02:59:41;;;;;;;7.45;4.22;;;;;;;;;;4979696;28;93423;-86
2023/03/19 03:02:08;;;;;;;6.00;4.10;;;;;;;;;;4990743;28;92563;-87
2023/03/19 03:04:38;;;;;;;5.93;4.18;;;;;;;;;;4979332;28;94600;-87
2023/03/19 03:07:05;;;;;;;5.85;4.38;;;;;;;;;;4993518;28;94592;-87
2023/03/19 03:09:31;;;;;;;8.73;4.60;;;;;;;;;;4994136;28;92405;-85
2023/03/19 03:11:57;;;;;;;5.38;4.22;;;;;;;;;;4997013;28;94242;-85
2023/03/19 03:14:24;;;;;;;6.95;4.65;;;;;;;;;;4983127;28;92612;-85
2023/03/19 03:16:50;;;;;;;8.20;5.30;;;;;;;;;;4992736;28;94209;-86
2023/03/19 03:19:18;;;;;;;5.28;4.57;;;;;;;;;;4990257;28;96866;-85
2023/03/19 03:21:44;;;;;;;7.82;5.20;;;;;;;;;;4986403;28;92551;-85
2023/03/19 03:24:11;;;;;;;8.88;4.78;;;;;;;;;;4991775;28;94378;-87
2023/03/19 03:26:38;;;;;;;7.50;4.93;;;;;;;;;;4986174;28;94358;-87
2023/03/19 03:29:05;;;;;;;8.95;5.70;;;;;;;;;;4994888;28;92713;-87
2023/03/19 03:31:32;;;;;;;9.70;5.30;;;;;;;;;;4985891;28;93517;-87
2023/03/19 03:33:58;;;;;;;7.80;5.57;;;;;;;;;;4992858;28;93356;-88
2023/03/19 03:36:26;;;;;;;8.43;5.60;;;;;;;;;;4991560;28;93134;-88
2023/03/19 03:38:53;;;;;;;10.95;6.00;;;;;;;;;;4994307;28;94862;-88
2023/03/19 03:41:19;;;;;;;9.05;6.47;;;;;;;;;;4985120;28;92580;-87
2023/03/19 03:43:46;;;;;;;8.95;5.95;;;;;;;;;;4993458;28;94972;-86
2023/03/19 03:46:12;;;;;;;12.30;6.95;;;;;;;;;;4987078;28;95144;-86
2023/03/19 03:48:39;;;;;;;11.23;7.45;;;;;;;;;;4993573;28;92637;-87
2023/03/19 03:51:06;;;;;;;9.90;7.10;;;;;;;;;;4995431;28;94130;-86
2023/03/19 03:53:33;;;;;;;9.25;6.15;;;;;;;;;;4994828;28;94353;-86
2023/03/19 03:56:00;;;;;;;11.30;6.90;;;;;;;;;;4996487;28;92436;-87
2023/03/19 03:58:26;;;;;;;9.93;7.35;;;;;;;;;;4985901;28;93398;-87
2023/03/19 04:00:53;;;;;;;9.00;7.28;;;;;;;;;;4992426;28;91751;-88
2023/03/19 04:03:21;;;;;;;9.60;7.03;;;;;;;;;;4987696;28;92908;-84
2023/03/19 04:05:49;;;;;;;8.73;7.35;;;;;;;;;;4993878;28;97294;-86
2023/03/19 04:08:15;;;;;;;11.45;7.13;;;;;;;;;;4993332;28;94786;-86
2023/03/19 04:10:42;;;;;;;8.77;7.32;;;;;;;;;;4995848;28;96838;-86
2023/03/19 04:13:09;;;;;;;15.10;8.77;;;;;;;;;;4994137;28;94523;-86
2023/03/19 04:15:36;;;;;;;15.52;7.97;;;;;;;;;;4985646;28;93837;-85
2023/03/19 04:18:02;;;;;;;10.07;7.80;;;;;;;;;;4995714;28;94159;-85
2023/03/19 04:20:29;;;;;;;12.43;8.65;;;;;;;;;;4989314;28;92564;-86
2023/03/19 04:22:56;;;;;;;13.57;8.45;;;;;;;;;;4993475;28;96402;-87
2023/03/19 04:25:22;;;;;;;12.35;8.43;;;;;;;;;;4996083;28;92637;-86
2023/03/19 04:27:49;;;;;;;22.45;9.75;;;;;;;;;;5002865;28;92506;-87
2023/03/19 04:30:15;;;;;;;11.45;8.93;;;;;;;;;;4995877;28;93901;-86
2023/03/19 04:32:43;;;;;;;15.18;10.13;;;;;;;;;;4994695;28;100125;-87
2023/03/19 04:35:09;;;;;;;13.80;8.60;;;;;;;;;;4990505;28;92531;-87
2023/03/19 04:37:36;;;;;;;13.70;9.98;;;;;;;;;;4978662;28;94529;-86
2023/03/19 04:40:02;;;;;;;15.23;10.45;;;;;;;;;;4992933;28;94534;-86
2023/03/19 04:42:29;;;;;;;22.08;9.63;;;;;;;;;;4991577;28;94261;-86
2023/03/19 04:44:56;;;;;;;15.60;9.55;;;;;;;;;;4990879;28;97074;-86
2023/03/19 04:47:22;;;;;;;15.73;10.90;;;;;;;;;;5005213;28;92629;-87
2023/03/19 04:49:48;;;;;;;15.20;10.38;;;;;;;;;;4998509;28;96272;-86
2023/03/19 04:52:15;;;;;;;14.48;10.15;;;;;;;;;;4975964;28;94924;-86
2023/03/19 04:54:41;;;;;;;13.52;9.52;;;;;;;;;;4987622;28;92454;-85
2023/03/19 04:57:07;;;;;;;14.63;9.80;;;;;;;;;;4993871;28;94877;-86
2023/03/19 04:59:34;;;;;;;14.75;10.20;;;;;;;;;;4993504;28;97875;-86
2023/03/19 05:02:00;;;;;;;14.23;9.57;;;;;;;;;;4992648;28;92395;-84
2023/03/19 05:04:28;;;;;;;15.85;10.48;;;;;;;;;;4995623;28;94932;-87
2023/03/19 05:06:54;;;;;;;13.73;9.48;;;;;;;;;;4986107;28;93032;-86
2023/03/19 05:09:20;;;;;;;14.27;9.32;;;;;;;;;;4996002;28;94263;-87
2023/03/19 05:11:46;;;;;;;15.20;10.02;;;;;;;;;;4991400;28;93119;-87
2023/03/19 05:14:13;;;;;;;11.90;9.55;;;;;;;;;;4996249;28;91762;-86
2023/03/19 05:16:41;;;;;;;14.73;10.65;;;;;;;;;;5003338;28;93505;-86
2023/03/19 05:19:08;;;;;;;16.83;10.70;;;;;;;;;;5001112;28;94644;-86
2023/03/19 05:21:34;;;;;;;19.80;11.20;;;;;;;;;;4997771;28;94835;-86
2023/03/19 05:24:00;;;;;;;16.67;10.27;;;;;;;;;;4994094;28;97663;-87
2023/03/19 05:26:26;;;;;;;13.82;10.38;;;;;;;;;;4993092;28;92655;-87
2023/03/19 05:28:53;;;;;;;19.80;11.20;;;;;;;;;;4977865;28;94593;-86
2023/03/19 05:31:19;;;;;;;26.52;11.30;;;;;;;;;;4987571;28;94784;-84
2023/03/19 05:33:46;;;;;;;14.93;11.30;;;;;;;;;;4989192;28;92637;-85
2023/03/19 05:36:12;;;;;;;27.75;10.85;;;;;;;;;;4987768;28;93544;-85
2023/03/19 05:38:39;;;;;;;18.48;11.23;;;;;;;;;;4994101;28;93547;-85
2023/03/19 05:41:05;;;;;;;17.17;10.77;;;;;;;;;;4992793;28;92483;-85
2023/03/19 05:43:32;;;;;;;21.48;11.50;;;;;;;;;;4987403;28;93116;-85
2023/03/19 05:45:59;;;;;;;16.25;10.80;;;;;;;;;;4990939;28;94994;-86
2023/03/19 05:48:25;;;;;;;15.90;11.50;;;;;;;;;;4994986;28;97112;-86
2023/03/19 05:50:52;;;;;;;14.77;10.93;;;;;;;;;;4994675;28;96437;-85
2023/03/19 05:53:19;;;;;;;16.48;11.65;;;;;;;;;;4991160;28;92560;-86
2023/03/19 05:55:45;;;;;;;16.48;12.07;;;;;;;;;;4985229;28;94344;-86
2023/03/19 05:58:11;;;;;;;15.75;11.55;;;;;;;;;;4993227;28;93715;-86
2023/03/19 06:00:38;;;;;;;17.20;12.30;;;;;;;;;;4994708;28;93912;-87
2023/03/19 06:03:04;;;;;;;19.98;12.55;;;;;;;;;;4995966;28;92915;-87
2023/03/19 06:05:30;;;;;;;18.15;12.05;;;;;;;;;;4986833;28;94704;-86
2023/03/19 06:07:57;;;;;;;14.88;11.10;;;;;;;;;;4986064;28;96770;-88
2023/03/19 06:10:23;;;;;;;19.70;12.57;;;;;;;;;;5001700;28;96931;-87
2023/03/19 06:12:50;;;;;;;15.93;12.38;;;;;;;;;;5013720;28;91612;-86
2023/03/19 06:15:16;;;;;;;21.38;11.88;;;;;;;;;;5003517;28;92551;-85
2023/03/19 06:17:43;;;;;;;19.17;12.95;;;;;;;;;;5012318;28;93749;-87
2023/03/19 06:20:10;;;;;;;17.60;12.27;;;;;;;;;;5014246;28;91762;-85
2023/03/19 06:22:37;;;;;;;17.63;11.23;;;;;;;;;;5013243;28;91511;-88
2023/03/19 06:25:03;;;;;;;17.65;12.13;;;;;;;;;;5016255;28;94643;-85
2023/03/19 06:27:29;;;;;;;17.83;10.95;;;;;;;;;;5012162;28;91681;-87
2023/03/19 06:29:56;;;;;;;19.83;12.05;;;;;;;;;;5015312;28;93743;-86
2023/03/19 06:32:22;;;;;;;17.20;12.00;;;;;;;;;;5004362;28;92810;-85
2023/03/19 06:34:48;;;;;;;18.45;11.77;;;;;;;;;;4997161;28;96665;-86
2023/03/19 06:37:15;;;;;;;16.98;12.15;;;;;;;;;;5012446;28;94564;-86
2023/03/19 06:39:42;;;;;;;19.85;12.02;;;;;;;;;;5017377;28;91803;-86
2023/03/19 06:42:08;;;;;;;18.90;12.45;;;;;;;;;;4999415;28;93088;-86
2023/03/19 06:44:34;;;;;;;21.98;12.38;;;;;;;;;;4991877;28;95272;-86
2023/03/19 06:47:02;;;;;;;21.00;12.68;;;;;;;;;;4987623;28;92446;-86
2023/03/19 06:49:29;;;;;;;17.70;12.20;;;;;;;;;;4999320;28;95507;-87
2023/03/19 06:51:55;;;;;;;20.13;11.85;;;;;;;;;;4995555;28;92080;-87
2023/03/19 06:54:23;;;;;;;22.50;13.63;;;;;;;;;;4995479;28;93450;-86
2023/03/19 06:56:50;;;;;;;22.33;13.75;;;;;;;;;;4995873;28;97330;-88
2023/03/19 06:59:16;;;;;;;22.85;14.23;;;;;;;;;;4993250;28;94849;-87
2023/03/19 07:01:43;;;;;;;24.02;14.80;;;;;;;;;;4983157;28;95748;-86
2023/03/19 07:04:10;;;;;;;25.50;15.70;;;;;;;;;;4977818;28;93863;-86
2023/03/19 07:06:36;;;;;;;28.38;15.95;;;;;;;;;;4987230;28;92364;-85
2023/03/19 07:09:03;;;;;;;23.95;15.95;;;;;;;;;;4990271;28;94312;-86
2023/03/19 07:11:29;;;;;;;27.85;16.40;;;;;;;;;;4992903;28;94316;-85
2023/03/19 07:13:57;;;;;;;26.58;15.85;;;;;;;;;;4979271;28;94308;-84
2023/03/19 07:16:24;;;;;;;24.20;15.77;;;;;;;;;;4997868;28;94102;-85
2023/03/19 07:18:50;;;;;;;20.23;13.98;;;;;;;;;;4997615;28;92447;-85
2023/03/19 07:21:16;;;;;;;22.63;14.23;;;;;;;;;;4991707;28;94690;-86
2023/03/19 07:23:45;;;;;;;22.67;14.23;;;;;;;;;;4990862;28;95834;-85
2023/03/19 07:26:12;;;;;;;20.70;14.30;;;;;;;;;;4996168;28;92533;-87
2023/03/19 07:28:38;;;;;;;22.83;14.85;;;;;;;;;;5000706;28;93163;-84
2023/03/19 07:31:05;;;;;;;28.13;15.38;;;;;;;;;;4996974;28;94390;-84
2023/03/19 07:33:31;;;;;;;27.55;14.98;;;;;;;;;;4991026;28;92945;-85
2023/03/19 07:35:57;;;;;;;27.00;16.25;;;;;;;;;;4990955;28;94523;-87
2023/03/19 07:38:24;;;;;;;27.40;16.33;;;;;;;;;;4988346;28;94626;-85
2023/03/19 07:40:50;;;;;;;28.58;17.02;;;;;;;;;;4983015;28;94399;-87
2023/03/19 07:43:28;;;;;;;30.70;17.75;;;;;;;;;;4990115;28;94580;-87
2023/03/19 07:45:54;;;;;;;37.63;19.25;;;;;;;;;;4992855;28;92444;-88
2023/03/19 07:48:20;;;;;;;33.05;19.17;;;;;;;;;;4996211;28;94836;-86
2023/03/19 07:50:48;;;;;;;33.78;19.73;;;;;;;;;;4998714;28;94738;-87
2023/03/19 07:53:15;;;;;;;34.03;19.90;;;;;;;;;;5000759;28;92635;-88
2023/03/19 07:55:41;;;;;;;41.63;20.95;;;;;;;;;;4996524;28;94374;-88
2023/03/19 07:58:08;;;;;;;41.92;21.15;;;;;;;;;;4996753;28;94217;-87
2023/03/19 08:00:34;;;;;;;35.30;20.98;;;;;;;;;;4986226;28;94340;-86
2023/03/19 08:03:01;;;;;;;36.58;18.98;;;;;;;;;;4994552;28;94535;-85
2023/03/19 08:05:27;;;;;;;38.28;20.52;;;;;;;;;;4996571;28;91659;-83
2023/03/19 08:07:54;;;;;;;36.55;19.02;;;;;;;;;;4996018;28;93294;-84
2023/03/19 08:10:21;;;;;;;38.83;20.33;;;;;;;;;;4984742;28;93300;-83
2023/03/19 08:12:47;;;;;;;34.20;19.98;;;;;;;;;;5003910;28;96696;-85
2023/03/19 08:15:14;;;;;;;32.10;18.83;;;;;;;;;;4992021;28;96651;-84
2023/03/19 08:17:40;;;;;;;36.03;20.80;;;;;;;;;;4995469;28;93160;-86
2023/03/19 08:20:08;;;;;;;37.47;20.73;;;;;;;;;;4988463;28;93986;-85
2023/03/19 08:22:35;;;;;;;41.10;21.05;;;;;;;;;;4975147;28;95178;-85
2023/03/19 08:25:02;;;;;;;36.75;19.88;;;;;;;;;;4978298;28;92678;-86
2023/03/19 08:27:30;;;;;;;37.33;20.10;;;;;;;;;;4979729;28;94785;-86
2023/03/19 08:29:56;;;;;;;38.58;21.67;;;;;;;;;;4982309;28;93775;-87
2023/03/19 08:32:23;;;;;;;38.67;22.23;;;;;;;;;;4996884;28;92441;-87
2023/03/19 08:34:50;;;;;;;38.53;21.10;;;;;;;;;;4994604;28;94271;-86
2023/03/19 08:37:16;;;;;;;40.30;22.35;;;;;;;;;;4994611;28;96976;-87
2023/03/19 08:39:43;;;;;;;38.28;21.33;;;;;;;;;;4983866;28;97086;-87
2023/03/19 08:42:09;;;;;;;39.53;20.58;;;;;;;;;;4988071;28;97828;-87
2023/03/19 08:44:35;;;;;;;32.72;20.20;;;;;;;;;;4989445;28;94330;-87
2023/03/19 08:47:02;;;;;;;38.95;20.67;;;;;;;;;;4984776;28;93388;-86
2023/03/19 08:49:28;;;;;;;42.78;22.23;;;;;;;;;;4986582;28;94945;-86
2023/03/19 08:51:55;;;;;;;34.38;20.20;;;;;;;;;;4993613;28;92485;-86
2023/03/19 08:54:21;;;;;;;35.08;20.10;;;;;;;;;;4989703;28;94492;-86
2023/03/19 08:56:48;;;;;;;38.05;21.73;;;;;;;;;;4990063;28;94664;-84
2023/03/19 08:59:15;;;;;;;38.17;22.35;;;;;;;;;;4993561;28;93851;-83
2023/03/19 09:01:43;;;;;;;35.97;21.17;;;;;;;;;;4992161;28;96976;-85
2023/03/19 09:04:09;;;;;;;42.70;21.00;;;;;;;;;;4995146;28;92534;-87
2023/03/19 09:06:35;;;;;;;36.17;21.65;;;;;;;;;;5012926;28;93548;-86
2023/03/19 09:09:02;;;;;;;38.08;20.77;;;;;;;;;;4986720;28;95156;-86
2023/03/19 09:11:28;;;;;;;37.10;20.55;;;;;;;;;;4983691;28;94177;-85
2023/03/19 09:13:55;;;;;;;32.35;20.05;;;;;;;;;;4995973;28;92570;-86
2023/03/19 09:16:21;;;;;;;34.88;19.88;;;;;;;;;;4990416;28;97669;-86
2023/03/19 09:18:47;;;;;;;30.42;18.17;;;;;;;;;;4991292;28;91885;-87
2023/03/19 09:21:14;;;;;;;36.35;20.95;;;;;;;;;;4990008;28;93850;-85
2023/03/19 09:23:40;;;;;;;34.90;20.55;;;;;;;;;;4993942;28;94362;-84
2023/03/19 09:26:07;;;;;;;36.45;20.25;;;;;;;;;;4992804;28;94740;-83
2023/03/19 09:28:33;;;;;;;34.97;21.38;;;;;;;;;;4978350;28;95001;-84
2023/03/19 09:31:05;;;;;;;35.58;20.30;;;;;;;;;;4992313;28;92695;-85
2023/03/19 09:33:33;;;;;;;29.08;18.33;;;;;;;;;;4978068;28;94491;-85
2023/03/19 09:36:00;;;;;;;34.42;20.27;;;;;;;;;;4985903;28;94801;-86
2023/03/19 09:38:27;;;;;;;35.65;19.98;;;;;;;;;;4989622;28;92461;-86
2023/03/19 09:41:04;;;;;;;34.65;21.33;;;;;;;;;;4984585;28;94293;-85
2023/03/19 09:43:33;;;;;;;34.10;19.70;;;;;;;;;;4986753;28;91842;-85
2023/03/19 09:46:01;;;;;;;30.17;19.15;;;;;;;;;;4994526;28;93567;-84
2023/03/19 09:48:49;;;;;;;35.65;20.08;;;;;;;;;;4989967;28;95938;-83
2023/03/19 09:51:20;;;;;;;33.08;20.10;;;;;;;;;;4983286;28;94848;-83
2023/03/19 09:53:50;;;;;;;34.10;19.98;;;;;;;;;;4992257;28;95975;-79
2023/03/19 09:56:18;;;;;;;37.63;19.77;;;;;;;;;;4993437;28;94503;-79
2023/03/19 09:58:44;;;;;;;35.30;20.40;;;;;;;;;;4993435;28;92380;-79
2023/03/19 10:01:29;;;;;;;42.00;21.67;;;;;;;;;;4992002;28;94218;-78
2023/03/19 10:04:01;;;;;;;36.10;20.88;;;;;;;;;;4996115;28;94328;-79
2023/03/19 10:06:39;;;;;;;39.55;22.98;;;;;;;;;;4994082;28;92350;-79
2023/03/19 10:09:26;;;;;;;38.45;23.30;;;;;;;;;;4984169;28;92440;-79
2023/03/19 10:12:01;;;;;;;39.22;23.02;;;;;;;;;;4993955;28;93554;-79
2023/03/19 10:14:46;;;;;;;35.97;22.40;;;;;;;;;;4992753;28;93177;-79
2023/03/19 10:17:23;;;;;;;38.60;22.75;;;;;;;;;;4991531;28;96428;-79
2023/03/19 10:19:56;;;;;;;40.03;23.85;;;;;;;;;;4986889;28;92515;-79
2023/03/19 10:22:24;;;;;;;39.22;22.95;;;;;;;;;;4992803;28;94387;-80
2023/03/19 10:24:52;;;;;;;45.13;24.85;;;;;;;;;;4993708;28;94539;-79
2023/03/19 10:27:22;;;;;;;43.85;25.48;;;;;;;;;;4996017;28;92538;-79
2023/03/19 10:29:48;;;;;;;41.47;23.67;;;;;;;;;;4993728;28;94582;-79
2023/03/19 10:32:33;;;;;;;36.33;23.02;;;;;;;;;;4993921;28;94585;-79
2023/03/19 10:35:02;;;;;;;39.83;22.92;;;;;;;;;;4980963;28;94314;-79
2023/03/19 10:37:28;;;;;;;35.55;22.27;;;;;;;;;;4985036;28;94009;-79
2023/03/19 10:39:56;;;;;;;39.22;21.48;;;;;;;;;;4977573;28;92465;-79
2023/03/19 10:42:42;;;;;;;35.13;20.65;;;;;;;;;;4979230;28;94838;-79
2023/03/19 10:45:10;;;;;;;35.08;21.00;;;;;;;;;;4994277;28;94511;-79
2023/03/19 10:47:40;;;;;;;33.67;21.70;;;;;;;;;;4996817;28;92481;-79
2023/03/19 10:50:06;;;;;;;;;;;;;;;;;;4999155;28;93764;-79
2023/03/19 10:52:35;;;;;;;35.72;21.02;;;;;;;;;;4998161;28;120828;-79
2023/03/19 10:55:14;;;;;;;37.78;20.83;;;;;;;;;;4995354;28;94230;-79
2023/03/19 10:57:42;;;;;;;34.13;18.83;;;;;;;;;;5006405;28;94576;-79
2023/03/19 11:00:17;;;;;;;28.75;18.40;;;;;;;;;;4981102;28;93086;-80
2023/03/19 11:02:45;;;;;;;29.67;18.20;;;;;;;;;;4973658;28;92888;-80
2023/03/19 11:05:12;;;;;;;33.33;17.80;;;;;;;;;;4982123;28;94660;-79
2023/03/19 11:07:38;;;;;;;37.47;20.13;;;;;;;;;;4993149;28;94983;-79
2023/03/19 11:10:12;;;;;;;33.00;20.20;;;;;;;;;;4984138;28;98970;-80
2023/03/19 11:12:39;;;;;;;32.53;19.50;;;;;;;;;;4999284;28;94796;-79
2023/03/19 11:15:15;;;;;;;32.90;19.98;;;;;;;;;;4995694;28;94393;-79
2023/03/19 11:17:46;;;;;;;35.72;20.95;;;;;;;;;;4996433;28;93425;-79
2023/03/19 11:20:42;;;;;;;45.42;20.20;;;;;;;;;;4995544;28;92808;-79
2023/03/19 11:23:14;;;;;;;33.05;19.48;;;;;;;;;;4984118;28;92469;-79
2023/03/19 11:25:45;;;;;;;38.80;19.55;;;;;;;;;;4977267;28;96393;-78
2023/03/19 11:28:16;;;;;;;30.38;19.08;;;;;;;;;;4976085;28;92495;-81
2023/03/19 11:31:07;;;;;;;31.73;18.75;;;;;;;;;;4979126;28;93143;-80
2023/03/19 11:33:35;;;;;;;31.35;17.98;;;;;;;;;;4994253;28;100500;-80
2023/03/19 11:36:08;;;;;;;37.65;19.33;;;;;;;;;;4999379;28;92512;-82
2023/03/19 11:38:47;;;;;;;33.80;19.40;;;;;;;;;;4985205;28;94904;-80
2023/03/19 11:41:36;;;;;;;30.67;19.10;;;;;;;;;;4976700;28;92878;-79
2023/03/19 11:44:14;;;;;;;35.92;19.70;;;;;;;;;;4976729;28;93149;-81
2023/03/19 11:46:45;;;;;;;38.90;20.02;;;;;;;;;;4983090;28;94511;-79
2023/03/19 11:49:19;;;;;;;43.90;23.05;;;;;;;;;;4996402;28;94024;-81
2023/03/19 11:51:50;;;;;;;44.25;24.55;;;;;;;;;;4996674;28;94474;-79
2023/03/19 11:54:28;;;;;;;34.67;20.70;;;;;;;;;;4994152;28;95057;-80
2023/03/19 11:56:58;;;;;;;48.25;25.92;;;;;;;;;;4998721;28;92698;-79
2023/03/19 11:59:33;;;;;;;40.13;21.55;;;;;;;;;;4994732;28;96613;-80
2023/03/19 12:02:02;;;;;;;38.80;21.90;;;;;;;;;;4993671;28;94310;-80
2023/03/19 12:04:48;;;;;;;32.13;21.33;;;;;;;;;;4995002;28;94116;-80
2023/03/19 12:07:29;;;;;;;39.78;21.92;;;;;;;;;;4993030;28;94912;-82
2023/03/19 12:10:01;;;;;;;40.92;23.05;;;;;;;;;;4975155;28;92535;-81
2023/03/19 12:12:31;;;;;;;42.30;21.98;;;;;;;;;;4989333;28;94364;-81
2023/03/19 12:15:04;;;;;;;36.88;21.45;;;;;;;;;;4995958;28;94466;-81
2023/03/19 12:17:36;;;;;;;35.95;20.85;;;;;;;;;;4990447;28;93203;-80
2023/03/19 12:20:24;;;;;;;34.22;19.73;;;;;;;;;;4993958;28;93170;-81
2023/03/19 12:22:57;;;;;;;34.83;18.92;;;;;;;;;;4976023;28;92359;-81
2023/03/19 12:25:43;;;;;;;39.35;19.50;;;;;;;;;;4973931;28;95286;-80
2023/03/19 12:28:21;;;;;;;34.88;18.45;;;;;;;;;;4975778;28;94752;-81
2023/03/19 12:30:57;;;;;;;28.35;17.73;;;;;;;;;;4974391;28;94010;-80
2023/03/19 12:33:29;;;;;;;31.42;18.02;;;;;;;;;;4974679;28;96608;-81
2023/03/19 12:35:57;;;;;;;40.13;18.75;;;;;;;;;;4980785;28;93439;-81
2023/03/19 12:38:30;;;;;;;32.63;18.17;;;;;;;;;;4977465;28;92623;-81
2023/03/19 12:41:02;;;;;;;29.95;16.85;;;;;;;;;;4975881;28;93259;-80
2023/03/19 12:43:28;;;;;;;29.35;16.20;;;;;;;;;;4978611;28;92768;-81
2023/03/19 12:45:58;;;;;;;26.83;15.60;;;;;;;;;;4974022;28;93665;-81
2023/03/19 12:48:27;;;;;;;34.90;17.63;;;;;;;;;;4992077;28;95344;-81
2023/03/19 12:50:56;;;;;;;28.02;16.17;;;;;;;;;;4983484;28;94854;-80
2023/03/19 12:53:22;;;;;;;29.33;17.10;;;;;;;;;;4991862;28;96750;-80
2023/03/19 12:55:52;;;;;;;28.92;15.98;;;;;;;;;;4985514;28;94366;-80
2023/03/19 12:58:30;;;;;;;21.97;14.33;;;;;;;;;;4986243;28;92645;-79
2023/03/19 13:01:01;;;;;;;29.60;15.23;;;;;;;;;;4995507;28;96838;-80
2023/03/19 13:03:32;;;;;;;29.02;15.13;;;;;;;;;;4988367;28;93798;-80
2023/03/19 13:06:13;;;;;;;28.48;15.65;;;;;;;;;;4991973;28;93343;-79
2023/03/19 13:08:46;;;;;;;28.45;15.88;;;;;;;;;;4990808;28;93799;-80
2023/03/19 13:11:15;;;;;;;28.98;16.15;;;;;;;;;;4993886;28;92534;-80
2023/03/19 13:13:47;;;;;;;26.17;14.95;;;;;;;;;;4987100;28;93734;-80
2023/03/19 13:16:14;;;;;;;30.00;16.08;;;;;;;;;;4981049;28;95817;-79
2023/03/19 13:18:47;;;;;;;33.17;15.90;;;;;;;;;;4984504;28;92513;-79
2023/03/19 13:21:26;;;;;;;34.50;17.55;;;;;;;;;;4985131;28;93226;-79
2023/03/19 13:24:02;;;;;;;29.77;16.42;;;;;;;;;;4982258;28;93407;-79
2023/03/19 13:26:30;;;;;;;33.67;15.95;;;;;;;;;;4994908;28;93130;-80
2023/03/19 13:29:00;;;;;;;34.80;16.67;;;;;;;;;;4998109;28;95987;-81
2023/03/19 13:31:28;;;;;;;33.97;15.95;;;;;;;;;;4990914;28;93905;-81
2023/03/19 13:34:17;;;;;;;30.00;15.68;;;;;;;;;;4995032;28;94241;-79
2023/03/19 13:37:12;;;;;;;28.15;14.15;;;;;;;;;;4992513;28;93679;-80
2023/03/19 13:39:41;;;;;;;27.50;13.48;;;;;;;;;;4993730;28;92429;-80
2023/03/19 13:42:09;;;;;;;21.45;11.70;;;;;;;;;;4988410;28;94858;-80
2023/03/19 13:44:41;;;;;;;26.17;11.93;;;;;;;;;;4991075;28;93381;-80
2023/03/19 13:47:25;;;;;;;24.48;13.07;;;;;;;;;;4994159;28;92610;-80
2023/03/19 13:50:09;;;;;;;25.85;13.82;;;;;;;;;;4994887;28;94144;-80
2023/03/19 13:52:38;;;;;;;30.10;13.43;;;;;;;;;;4979874;28;93990;-81
2023/03/19 13:55:31;;;;;;;27.98;13.80;;;;;;;;;;4974276;28;93429;-80
2023/03/19 13:58:11;;;;;;;22.92;13.10;;;;;;;;;;4971935;28;93734;-80
2023/03/19 14:00:41;;;;;;;23.60;12.02;;;;;;;;;;4975514;28;91828;-80
2023/03/19 14:03:34;;;;;;;26.58;13.38;;;;;;;;;;4992400;28;93884;-80
2023/03/19 14:06:00;;;;;;;30.83;13.48;;;;;;;;;;4980011;28;93320;-81
2023/03/19 14:08:28;;;;;;;20.80;12.15;;;;;;;;;;4981317;28;94834;-80
2023/03/19 14:10:56;;;;;;;23.73;12.10;;;;;;;;;;4972794;28;96137;-80
2023/03/19 14:13:31;;;;;;;25.45;12.38;;;;;;;;;;4976944;28;93951;-81
2023/03/19 14:16:13;;;;;;;26.90;13.02;;;;;;;;;;4993697;28;93712;-80
2023/03/19 14:18:42;;;;;;;24.30;13.38;;;;;;;;;;4990053;28;96121;-80
2023/03/19 14:21:12;;;;;;;21.70;12.75;;;;;;;;;;4989862;28;93167;-80
2023/03/19 14:23:40;;;;;;;23.13;12.93;;;;;;;;;;4976503;28;93262;-79
2023/03/19 14:26:19;;;;;;;22.33;12.60;;;;;;;;;;4983895;28;92844;-80
2023/03/19 14:28:48;;;;;;;24.90;13.10;;;;;;;;;;5007897;28;92532;-79
2023/03/19 14:31:18;;;;;;;24.10;13.98;;;;;;;;;;4993641;28;94134;-80
2023/03/19 14:33:51;;;;;;;23.77;13.57;;;;;;;;;;4982915;28;96472;-80
2023/03/19 14:36:20;;;;;;;21.63;13.35;;;;;;;;;;4995830;28;92464;-81
2023/03/19 14:38:55;;;;;;;56.10;18.20;;;;;;;;;;4975781;28;92432;-79